Time;durP1;ratioP1;P1;durP2;ratioP2;P2;SDS_P1;SDS_P2;PMS_P1;PMS_P2;Temp;Humidity;BMP_temperature;BMP_pressure;BME280_temperature;BME280_humidity;BME280_pressure;Samples;Min_cycle;Max_cycle;Signal;HPM_P1;HPM_P2
2021/05/12 00:00:31;;;;;;;1.92;1.13;;;;;;;11.78;76.25;99709.06;4995091;28;20037;-92
2021/05/12 00:02:56;;;;;;;2.53;1.02;;;;;;;11.66;76.60;99718.81;4995026;28;20579;-93
2021/05/12 00:05:23;;;;;;;3.78;0.85;;;;;;;11.59;75.75;99715.03;4995111;28;20026;-93
2021/05/12 00:07:49;;;;;;;2.05;1.00;;;;;;;11.57;76.48;99713.47;4994579;28;20031;-93
2021/05/12 00:10:15;;;;;;;2.17;0.90;;;;;;;11.40;76.50;99723.59;4994817;28;20419;-94
2021/05/12 00:12:42;;;;;;;3.03;0.90;;;;;;;11.39;76.71;99721.91;4994795;28;20265;-93
2021/05/12 00:15:14;;;;;;;3.00;1.02;;;;;;;11.33;77.31;99719.78;4994670;28;20022;-92
2021/05/12 00:17:41;;;;;;;6.65;2.47;;;;;;;11.32;77.33;99721.59;4994565;28;20032;-92
2021/05/12 00:20:08;;;;;;;2.40;1.10;;;;;;;11.28;77.38;99719.34;4994633;28;20042;-93
2021/05/12 00:22:48;;;;;;;1.75;1.02;;;;;;;11.16;78.14;99718.56;4994581;28;20110;-93
2021/05/12 00:25:14;;;;;;;2.38;0.98;;;;;;;11.19;77.75;99715.66;4994653;28;20022;-92
2021/05/12 00:27:40;;;;;;;4.30;0.90;;;;;;;11.15;76.82;99710.78;4994215;28;20366;-92
2021/05/12 00:30:09;;;;;;;2.58;1.20;;;;;;;11.19;76.87;99718.28;4994223;28;20488;-92
2021/05/12 00:32:34;;;;;;;3.45;1.05;;;;;;;11.17;77.26;99722.84;4994127;28;20056;-92
2021/05/12 00:35:00;;;;;;;2.78;1.48;;;;;;;11.17;76.87;99729.91;4994119;28;20460;-93
2021/05/12 00:37:25;;;;;;;1.25;0.90;;;;;;;11.15;77.23;99723.94;4993725;28;20039;-93
2021/05/12 00:39:50;;;;;;;1.95;1.30;;;;;;;11.04;77.54;99728.28;4993772;28;20085;-93
2021/05/12 00:42:16;;;;;;;1.52;1.00;;;;;;;11.03;78.01;99726.59;4993876;28;20387;-93
2021/05/12 00:44:41;;;;;;;4.93;1.48;;;;;;;10.84;77.43;99727.25;4994140;28;20046;-93
2021/05/12 00:47:07;;;;;;;3.45;0.93;;;;;;;10.91;77.63;99722.31;4994176;28;20037;-93
2021/05/12 00:49:33;;;;;;;2.35;1.42;;;;;;;10.97;78.75;99732.34;4994314;28;20277;-93
2021/05/12 00:52:00;;;;;;;3.22;0.85;;;;;;;10.96;78.39;99732.44;4993828;28;20113;-93
2021/05/12 00:54:25;;;;;;;2.38;1.05;;;;;;;10.92;78.46;99724.00;4993925;28;20022;-92
2021/05/12 00:56:51;;;;;;;2.25;1.10;;;;;;;10.80;78.94;99723.19;4994252;28;20030;-93
2021/05/12 00:59:17;;;;;;;4.07;1.30;;;;;;;10.81;78.99;99727.47;4994095;28;20026;-93
2021/05/12 01:01:43;;;;;;;2.35;0.90;;;;;;;10.82;78.86;99733.56;4993927;28;20441;-93
2021/05/12 01:04:08;;;;;;;2.40;0.90;;;;;;;10.77;78.65;99727.84;4994031;28;20034;-92
2021/05/12 01:06:39;;;;;;;1.15;1.00;;;;;;;10.75;79.03;99724.53;4992219;28;20081;-93
2021/05/12 01:09:08;;;;;;;5.05;1.85;;;;;;;10.77;78.40;99722.59;4993385;28;20034;-91
2021/05/12 01:11:35;;;;;;;3.50;1.30;;;;;;;10.65;79.15;99727.03;4993650;28;20030;-94
2021/05/12 01:14:02;;;;;;;2.35;1.20;;;;;;;10.74;78.88;99725.47;4993777;28;20492;-93
2021/05/12 01:16:27;;;;;;;4.00;1.10;;;;;;;10.70;78.46;99725.72;4993364;28;20416;-93
2021/05/12 01:18:53;;;;;;;3.17;1.40;;;;;;;10.77;78.19;99712.94;4993678;28;20026;-92
2021/05/12 01:21:19;;;;;;;1.90;1.33;;;;;;;10.83;78.98;99714.22;4993156;28;20041;-93
2021/05/12 01:23:47;;;;;;;4.28;1.38;;;;;;;10.84;78.60;99723.75;4993670;28;20284;-93
2021/05/12 01:26:19;;;;;;;1.70;0.95;;;;;;;10.87;78.41;99723.53;4993646;28;20037;-93
2021/05/12 01:28:45;;;;;;;;;;;;;;;10.85;77.02;99726.28;4993696;28;20027;-93
2021/05/12 01:31:35;;;;;;;1.27;0.80;;;;;;;10.87;78.46;99720.91;4993367;28;19914;-92
2021/05/12 01:34:02;;;;;;;2.10;0.80;;;;;;;11.02;79.34;99719.69;4993285;28;20019;-92
2021/05/12 01:36:30;;;;;;;1.23;0.90;;;;;;;11.13;80.21;99725.84;4993085;28;20022;-92
2021/05/12 01:38:56;;;;;;;2.13;0.82;;;;;;;11.20;80.04;99716.53;4993171;28;20073;-92
2021/05/12 01:41:23;;;;;;;1.58;0.70;;;;;;;11.03;77.86;99716.09;4993159;28;20038;-92
2021/05/12 01:43:49;;;;;;;1.77;0.82;;;;;;;11.10;79.87;99716.44;4992505;28;20110;-92
2021/05/12 01:46:15;;;;;;;3.70;2.22;;;;;;;11.23;79.25;99718.88;4992602;28;20281;-92
2021/05/12 01:48:41;;;;;;;3.17;0.82;;;;;;;11.32;78.80;99720.78;4992785;28;20496;-93
2021/05/12 01:51:08;;;;;;;2.05;0.75;;;;;;;11.35;79.28;99725.75;4992746;28;20061;-93
2021/05/12 01:53:34;;;;;;;1.30;0.70;;;;;;;11.25;77.80;99719.59;4992946;28;20436;-92
2021/05/12 01:56:00;;;;;;;1.65;0.90;;;;;;;11.29;78.93;99721.00;4992822;28;20018;-92
2021/05/12 01:58:25;;;;;;;1.70;0.63;;;;;;;11.40;79.22;99723.59;4992968;28;20045;-92
2021/05/12 02:00:53;;;;;;;1.77;0.80;;;;;;;11.46;78.25;99730.97;4992825;28;20142;-92
2021/05/12 02:03:18;;;;;;;1.55;0.60;;;;;;;11.47;78.58;99732.66;4992707;28;20106;-92
2021/05/12 02:05:45;;;;;;;3.42;0.75;;;;;;;11.57;79.26;99729.25;4992633;28;20035;-93
2021/05/12 02:08:12;;;;;;;4.10;1.33;;;;;;;11.67;79.39;99722.25;4992714;28;20035;-93
2021/05/12 02:10:41;;;;;;;2.97;0.80;;;;;;;11.66;79.32;99726.69;4992874;28;20022;-92
2021/05/12 02:13:07;;;;;;;1.27;0.80;;;;;;;11.71;78.81;99715.81;4991179;28;20026;-92
2021/05/12 02:15:32;;;;;;;3.67;0.75;;;;;;;11.76;77.35;99723.31;4992691;28;20034;-93
2021/05/12 02:17:58;;;;;;;0.93;0.60;;;;;;;11.76;78.50;99724.13;4995545;28;20110;-93
2021/05/12 02:20:29;;;;;;;2.08;0.47;;;;;;;11.76;79.07;99720.66;4996691;28;20029;-93
2021/05/12 02:22:59;;;;;;;2.53;0.85;;;;;;;11.83;79.01;99725.28;4996592;28;20022;-92
2021/05/12 02:25:25;;;;;;;2.35;0.70;;;;;;;11.86;79.06;99726.81;4996589;28;20026;-92
2021/05/12 02:27:51;;;;;;;1.20;0.80;;;;;;;11.99;78.94;99724.03;4996554;28;20105;-92
2021/05/12 02:30:17;;;;;;;5.47;1.00;;;;;;;11.99;79.23;99729.28;4996711;28;20030;-93
2021/05/12 02:32:43;;;;;;;2.40;0.68;;;;;;;12.02;79.11;99734.28;4996505;28;20022;-92
2021/05/12 02:35:11;;;;;;;3.63;0.77;;;;;;;11.98;78.85;99725.81;4997316;28;20022;-94
2021/05/12 02:37:37;;;;;;;2.38;0.80;;;;;;;11.99;79.61;99729.28;4996610;28;20030;-93
2021/05/12 02:40:08;;;;;;;1.88;0.77;;;;;;;12.05;79.02;99726.97;4996504;28;20109;-93
2021/05/12 02:42:34;;;;;;;3.38;0.82;;;;;;;12.06;78.78;99725.16;4996066;28;20030;-94
2021/05/12 02:44:59;;;;;;;2.65;1.17;;;;;;;12.14;77.98;99727.97;4996321;28;20539;-94
2021/05/12 02:47:25;;;;;;;3.20;1.02;;;;;;;12.23;77.76;99724.56;4996607;28;20030;-93
2021/05/12 02:49:50;;;;;;;2.50;0.70;;;;;;;12.21;77.90;99717.78;4996301;28;20121;-94
2021/05/12 02:52:16;;;;;;;1.42;0.60;;;;;;;12.18;77.85;99713.59;4996102;28;20030;-93
2021/05/12 02:54:41;;;;;;;1.92;0.90;;;;;;;12.21;76.88;99723.03;4996103;28;20025;-93
2021/05/12 02:57:07;;;;;;;4.72;1.08;;;;;;;12.20;76.98;99721.34;4995951;28;20030;-93
2021/05/12 02:59:32;;;;;;;1.95;0.70;;;;;;;12.25;77.89;99719.16;4995994;28;20023;-93
2021/05/12 03:01:58;;;;;;;3.42;0.77;;;;;;;12.22;78.56;99724.69;4996118;28;20101;-95
2021/05/12 03:04:23;;;;;;;3.03;0.90;;;;;;;12.22;78.95;99724.69;4995926;28;20058;-92
2021/05/12 03:06:49;;;;;;;1.13;0.40;;;;;;;12.15;77.79;99716.50;4995618;28;20030;-93
2021/05/12 03:09:15;;;;;;;1.85;0.88;;;;;;;12.24;79.02;99720.97;4994430;28;20034;-93
2021/05/12 03:11:41;;;;;;;1.10;0.70;;;;;;;12.25;78.40;99719.16;4995914;28;20050;-93
2021/05/12 03:14:08;;;;;;;3.83;1.00;;;;;;;12.25;77.29;99711.28;4994643;28;20451;-93
2021/05/12 03:16:34;;;;;;;3.75;0.90;;;;;;;12.33;77.97;99710.63;4994410;28;20026;-93
2021/05/12 03:19:00;;;;;;;3.10;0.90;;;;;;;12.30;78.63;99707.28;4995617;28;20038;-93
2021/05/12 03:21:26;;;;;;;2.53;0.98;;;;;;;12.35;78.77;99706.06;4994327;28;20026;-93
2021/05/12 03:23:51;;;;;;;2.28;0.90;;;;;;;12.23;78.61;99700.88;4995633;28;20065;-93
2021/05/12 03:26:18;;;;;;;1.17;0.70;;;;;;;12.26;78.82;99715.56;4995564;28;20050;-93
2021/05/12 03:28:44;;;;;;;2.45;1.10;;;;;;;12.12;78.90;99703.59;4994563;28;20098;-92
2021/05/12 03:31:13;;;;;;;5.40;2.45;;;;;;;12.23;78.81;99714.03;4995535;28;20030;-93
2021/05/12 03:33:40;;;;;;;4.75;1.10;;;;;;;12.28;78.37;99713.63;4995357;28;20022;-94
2021/05/12 03:36:07;;;;;;;1.73;0.93;;;;;;;12.29;78.22;99708.22;4995183;28;20034;-93
2021/05/12 03:38:32;;;;;;;1.65;0.90;;;;;;;12.27;78.28;99717.25;4995127;28;20114;-93
2021/05/12 03:40:58;;;;;;;2.20;1.00;;;;;;;12.30;79.01;99712.56;4995330;28;20030;-93
2021/05/12 03:43:23;;;;;;;3.70;0.70;;;;;;;12.28;79.19;99718.88;4995227;28;20509;-93
2021/05/12 03:45:48;;;;;;;1.27;0.75;;;;;;;12.38;80.09;99718.94;4993740;28;20033;-93
2021/05/12 03:48:14;;;;;;;1.33;0.60;;;;;;;12.40;79.81;99711.72;4995021;28;20464;-93
2021/05/12 03:50:40;;;;;;;2.80;0.90;;;;;;;12.39;79.46;99710.91;4994751;28;20037;-93
2021/05/12 03:53:06;;;;;;;1.80;1.13;;;;;;;12.45;78.98;99717.44;4993773;28;20049;-91
2021/05/12 03:55:32;;;;;;;1.65;0.80;;;;;;;12.45;79.30;99713.00;4993685;28;20027;-93
2021/05/12 03:57:57;;;;;;;3.45;1.20;;;;;;;12.42;79.60;99709.81;4994641;28;20500;-91
2021/05/12 04:00:23;;;;;;;3.40;0.82;;;;;;;12.41;79.20;99708.16;4994923;28;20057;-92
2021/05/12 04:02:49;;;;;;;3.58;0.85;;;;;;;12.43;78.88;99717.56;4994970;28;20030;-93
2021/05/12 04:05:15;;;;;;;1.20;0.90;;;;;;;12.30;79.43;99712.56;4993210;28;20045;-92
2021/05/12 04:07:41;;;;;;;3.50;0.77;;;;;;;12.32;80.12;99711.56;4994251;28;20026;-91
2021/05/12 04:10:08;;;;;;;3.08;0.90;;;;;;;12.39;79.33;99716.19;4994573;28;20504;-93
2021/05/12 04:12:33;;;;;;;2.53;0.70;;;;;;;12.39;79.57;99716.19;4994612;28;20492;-93
2021/05/12 04:14:58;;;;;;;1.13;0.77;;;;;;;12.39;79.44;99717.97;4994595;28;20054;-92
2021/05/12 04:17:26;;;;;;;2.53;0.85;;;;;;;12.32;80.43;99715.03;4994485;28;20469;-93
2021/05/12 04:19:51;;;;;;;3.95;1.00;;;;;;;12.39;80.04;99728.50;4994760;28;20518;-92
2021/05/12 04:22:16;;;;;;;4.00;1.13;;;;;;;12.27;80.38;99725.97;4994281;28;20026;-92
2021/05/12 04:24:42;;;;;;;4.30;1.20;;;;;;;12.32;80.61;99730.00;4994504;28;20105;-93
2021/05/12 04:27:07;;;;;;;2.63;0.77;;;;;;;12.35;80.17;99725.31;4994413;28;20422;-92
2021/05/12 04:29:33;;;;;;;2.45;0.70;;;;;;;12.38;80.35;99732.09;4994248;28;20041;-93
2021/05/12 04:31:58;;;;;;;5.18;1.30;;;;;;;12.44;80.29;99734.19;4994112;28;20026;-92
2021/05/12 04:34:23;;;;;;;10.05;2.08;;;;;;;12.43;81.13;99732.53;4994490;28;20046;-94
2021/05/12 04:36:49;;;;;;;9.25;2.08;;;;;;;12.37;81.16;99731.28;4993655;28;20062;-92
2021/05/12 04:39:14;;;;;;;6.78;1.67;;;;;;;12.52;80.59;99731.75;4994095;28;20044;-93
2021/05/12 04:41:40;;;;;;;14.00;2.10;;;;;;;12.64;79.95;99730.69;4994034;28;20044;-92
2021/05/12 04:44:06;;;;;;;8.05;1.92;;;;;;;12.58;80.20;99731.22;4993910;28;20491;-93
2021/05/12 04:46:31;;;;;;;7.70;1.85;;;;;;;12.68;80.15;99744.41;4993805;28;20029;-92
2021/05/12 04:48:57;;;;;;;11.18;2.05;;;;;;;12.80;79.71;99742.50;4993935;28;20030;-91
2021/05/12 04:51:22;;;;;;;8.07;1.92;;;;;;;12.78;79.96;99733.91;4993757;28;20030;-91
2021/05/12 04:53:48;;;;;;;7.13;1.50;;;;;;;12.81;80.10;99741.53;4993667;28;20038;-92
2021/05/12 04:56:15;;;;;;;12.38;1.95;;;;;;;12.79;80.10;99746.94;4993744;28;20045;-91
2021/05/12 04:58:40;;;;;;;11.73;2.17;;;;;;;12.83;79.79;99745.69;4993814;28;20026;-93
2021/05/12 05:01:06;;;;;;;6.18;1.58;;;;;;;12.94;79.35;99739.50;4992626;28;20022;-93
2021/05/12 05:03:32;;;;;;;11.88;2.10;;;;;;;12.99;79.41;99755.72;4993734;28;20049;-92
2021/05/12 05:05:58;;;;;;;8.05;1.45;;;;;;;12.97;79.04;99736.56;4993201;28;20022;-91
2021/05/12 05:08:27;;;;;;;12.10;2.63;;;;;;;13.01;79.78;99731.84;4993448;28;20027;-93
2021/05/12 05:10:52;;;;;;;10.55;2.20;;;;;;;12.99;80.08;99745.16;4993621;28;20066;-92
2021/05/12 05:13:18;;;;;;;9.93;2.38;;;;;;;12.94;80.20;99744.75;4993613;28;20448;-93
2021/05/12 05:15:45;;;;;;;5.85;1.52;;;;;;;12.93;80.86;99744.88;4993554;28;20031;-93
2021/05/12 05:18:11;;;;;;;8.90;1.63;;;;;;;13.01;80.39;99751.16;4993496;28;20019;-93
2021/05/12 05:20:37;;;;;;;5.82;1.70;;;;;;;13.05;80.03;99749.91;4993432;28;20050;-92
2021/05/12 05:23:05;;;;;;;8.10;1.60;;;;;;;13.09;80.46;99756.59;4993232;28;20030;-93
2021/05/12 05:25:30;;;;;;;5.38;1.60;;;;;;;13.10;79.95;99757.41;4991923;28;20018;-94
2021/05/12 05:27:56;;;;;;;7.85;1.70;;;;;;;13.19;80.84;99761.88;4993186;28;20503;-94
2021/05/12 05:30:21;;;;;;;10.13;2.00;;;;;;;13.28;80.40;99765.47;4993126;28;20555;-93
2021/05/12 05:32:46;;;;;;;10.52;1.63;;;;;;;13.34;79.97;99756.22;4992013;28;20034;-93
2021/05/12 05:35:12;;;;;;;8.23;1.92;;;;;;;13.48;79.42;99767.16;4993183;28;20097;-94
2021/05/12 05:37:37;;;;;;;7.70;1.77;;;;;;;13.42;80.41;99764.25;4993374;28;20169;-93
2021/05/12 05:40:03;;;;;;;15.70;1.80;;;;;;;13.42;79.79;99762.47;4993053;28;20396;-93
2021/05/12 05:42:29;;;;;;;8.90;1.80;;;;;;;13.38;80.61;99755.78;4993071;28;20166;-94
2021/05/12 05:44:54;;;;;;;8.15;1.80;;;;;;;13.51;79.47;99767.88;4993050;28;20026;-92
2021/05/12 05:47:19;;;;;;;8.15;1.50;;;;;;;13.48;79.26;99761.06;4993165;28;20058;-93
2021/05/12 05:49:48;;;;;;;10.85;2.13;;;;;;;13.59;79.98;99757.47;4993138;28;20045;-93
2021/05/12 05:52:13;;;;;;;11.48;2.60;;;;;;;13.69;79.21;99767.03;4992489;28;20123;-93
2021/05/12 05:54:38;;;;;;;13.82;2.58;;;;;;;13.78;77.93;99762.72;4991910;28;20046;-94
2021/05/12 05:57:06;;;;;;;9.25;2.22;;;;;;;13.94;78.46;99763.94;4992897;28;20357;-93
2021/05/12 05:59:32;;;;;;;11.20;2.80;;;;;;;14.08;77.30;99768.81;4992782;28;20035;-92
2021/05/12 06:01:58;;;;;;;9.70;1.60;;;;;;;14.14;76.50;99762.94;4992954;28;20084;-91
2021/05/12 06:04:24;;;;;;;10.43;2.08;;;;;;;14.17;76.31;99765.28;4992250;28;20026;-91
2021/05/12 06:06:51;;;;;;;10.20;1.92;;;;;;;14.25;75.71;99775.13;4992847;28;20524;-90
2021/05/12 06:09:17;;;;;;;13.50;2.17;;;;;;;14.43;75.83;99772.56;4992761;28;20034;-91
2021/05/12 06:11:43;;;;;;;9.23;2.53;;;;;;;14.41;75.03;99764.78;4992785;28;20097;-91
2021/05/12 06:14:08;;;;;;;14.02;2.45;;;;;;;14.48;75.32;99765.06;4992813;28;20153;-91
2021/05/12 06:16:34;;;;;;;14.57;2.13;;;;;;;14.53;74.84;99776.00;4992599;28;20023;-91
2021/05/12 06:18:59;;;;;;;13.15;1.90;;;;;;;14.60;74.39;99766.56;4992698;28;20031;-92
2021/05/12 06:21:26;;;;;;;10.82;2.65;;;;;;;14.57;73.38;99771.31;4992326;28;20102;-91
2021/05/12 06:23:52;;;;;;;11.30;2.28;;;;;;;14.62;74.10;99767.25;4992500;28;20365;-91
2021/05/12 06:26:18;;;;;;;20.05;3.13;;;;;;;14.80;72.79;99769.94;4992212;28;20041;-91
2021/05/12 06:28:45;;;;;;;11.02;2.35;;;;;;;14.84;73.60;99775.78;4992530;28;20022;-91
2021/05/12 06:31:12;;;;;;;12.50;3.35;;;;;;;15.11;72.79;99774.94;4992566;28;20451;-90
2021/05/12 06:33:39;;;;;;;14.48;2.45;;;;;;;15.74;70.94;99782.00;4992393;28;20049;-92
2021/05/12 06:36:06;;;;;;;8.52;2.15;;;;;;;15.80;69.16;99778.75;4992542;28;20039;-92
2021/05/12 06:38:32;;;;;;;13.30;2.22;;;;;;;15.97;69.37;99781.50;4986039;28;20030;-91
2021/05/12 06:40:58;;;;;;;9.70;2.10;;;;;;;16.31;67.89;99786.03;4991461;28;20026;-91
2021/05/12 06:43:23;;;;;;;14.50;2.55;;;;;;;16.64;66.51;99782.56;4991528;28;20040;-92
2021/05/12 06:45:48;;;;;;;10.02;2.25;;;;;;;17.19;64.07;99785.78;4991733;28;20030;-92
2021/05/12 06:48:14;;;;;;;10.35;2.00;;;;;;;18.07;60.86;99779.03;4991620;28;20037;-91
2021/05/12 06:50:39;;;;;;;15.73;2.92;;;;;;;18.50;56.46;99772.47;4991478;28;20078;-92
2021/05/12 06:53:05;;;;;;;14.50;2.70;;;;;;;18.24;59.24;99775.34;4992649;28;20023;-95
2021/05/12 06:55:30;;;;;;;17.55;3.45;;;;;;;17.97;58.08;99779.22;4997923;28;20510;-93
2021/05/12 06:57:56;;;;;;;13.07;2.60;;;;;;;18.20;56.57;99777.53;4995328;28;20357;-95
2021/05/12 07:00:22;;;;;;;14.40;2.80;;;;;;;17.78;57.04;99777.72;5002077;28;20042;-95
2021/05/12 07:02:48;;;;;;;16.25;3.33;;;;;;;17.78;58.55;99778.53;5534582;23;20053;-96
2021/05/12 07:20:35;;;;;;;16.15;3.38;;;;;;;19.18;52.54;99752.41;5014811;28;20034;-96
2021/05/12 07:38:32;;;;;;;16.13;2.95;;;;;;;18.53;52.45;99766.00;5711416;23;20778;-95
2021/05/12 07:41:00;;;;;;;13.65;3.72;;;;;;;18.92;51.31;99759.88;5014141;28;20049;-96
2021/05/12 08:19:37;;;;;;;12.68;2.50;;;;;;;19.96;43.68;99776.28;6070415;23;21960;-92
2021/05/12 08:45:22;;;;;;;14.20;2.40;;;;;;;18.72;48.62;99762.09;5123185;23;20025;-90
2021/05/12 08:48:00;;;;;;;22.25;3.83;;;;;;;19.28;47.81;99762.00;5040754;28;20006;-87
2021/05/12 08:50:32;;;;;;;14.93;2.78;;;;;;;18.90;47.22;99759.19;5041297;28;20052;-86
2021/05/12 09:49:23;;;;;;;7.15;1.48;;;;;;;23.62;32.68;99759.94;6151679;22;20823;-93
2021/05/12 10:32:35;;;;;;;6.32;1.80;;;;;;;21.28;35.75;99749.72;5049154;28;20060;-96
2021/05/12 10:40:20;;;;;;;8.57;1.60;;;;;;;21.04;34.52;99742.09;5304868;22;20044;-96
2021/05/12 11:09:14;;;;;;;10.77;2.63;;;;;;;20.44;37.68;99739.50;5216279;22;20047;-96
2021/05/12 11:11:45;;;;;;;9.68;1.90;;;;;;;20.68;38.40;99759.72;5088796;28;20021;-96
2021/05/12 11:14:31;;;;;;;7.57;2.67;;;;;;;20.70;38.03;99762.22;5067109;28;20028;-96
2021/05/12 11:17:10;;;;;;;15.10;3.05;;;;;;;20.40;40.30;99762.22;5084981;28;20039;-96
2021/05/12 11:19:42;;;;;;;10.13;2.60;;;;;;;20.64;38.76;99763.78;5080138;28;20098;-96
2021/05/12 11:32:34;;;;;;;6.43;2.15;;;;;;;22.06;35.48;99760.50;5074491;28;20413;-96
2021/05/12 11:35:01;;;;;;;11.23;2.15;;;;;;;22.68;35.01;99745.44;5068131;28;20028;-96
2021/05/12 11:37:27;;;;;;;11.13;2.10;;;;;;;23.59;34.59;99733.53;5075469;28;20091;-96
2021/05/12 11:39:56;;;;;;;9.68;2.88;;;;;;;25.23;31.28;99747.78;5080129;28;20024;-96
2021/05/12 11:42:31;;;;;;;6.95;1.58;;;;;;;25.48;32.46;99717.44;5444204;22;20092;-96
2021/05/12 11:45:17;;;;;;;7.55;1.95;;;;;;;25.18;30.44;99736.00;5081121;28;20115;-96
2021/05/12 11:48:06;;;;;;;9.35;1.88;;;;;;;23.95;32.74;99737.66;5075277;28;20029;-96
2021/05/12 11:50:31;;;;;;;8.23;2.13;;;;;;;23.87;32.62;99735.19;5067987;28;20048;-96
2021/05/12 11:52:57;;;;;;;11.77;2.55;;;;;;;23.35;33.46;99718.88;5067932;28;20025;-96
2021/05/12 11:55:29;;;;;;;9.52;2.22;;;;;;;22.51;34.47;99731.59;5061168;28;20491;-96
2021/05/12 11:57:55;;;;;;;8.07;2.15;;;;;;;22.70;34.48;99721.97;5071954;28;20029;-96
2021/05/12 12:00:28;;;;;;;7.85;2.05;;;;;;;23.96;33.99;99709.84;5071488;28;20551;-96
2021/05/12 12:03:02;;;;;;;8.85;2.22;;;;;;;25.36;32.70;99693.16;5090575;28;20176;-95
2021/05/12 12:05:50;;;;;;;8.38;2.22;;;;;;;25.99;30.17;99692.22;5080573;28;20383;-96
2021/05/12 12:08:21;;;;;;;8.75;2.28;;;;;;;26.22;30.34;99696.09;5094893;28;20032;-96
2021/05/12 12:10:47;;;;;;;;;;;;;;;25.96;29.51;99708.78;5225454;22;20058;-96
2021/05/12 12:13:16;;;;;;;8.90;2.60;;;;;;;25.32;31.58;99690.06;5110826;28;19915;-96
2021/05/12 12:15:47;;;;;;;15.50;2.85;;;;;;;24.43;31.67;99717.78;5107074;28;20028;-96
2021/05/12 12:18:13;;;;;;;10.02;2.20;;;;;;;24.28;32.28;99704.59;5109680;28;20026;-96
2021/05/12 12:20:38;;;;;;;9.30;2.42;;;;;;;25.76;32.04;99700.06;5115149;28;20047;-96
2021/05/12 12:23:05;;;;;;;8.45;2.20;;;;;;;26.17;29.40;99698.66;5102652;28;20063;-96
2021/05/12 12:25:45;;;;;;;8.57;3.03;;;;;;;26.58;27.51;99694.41;5110628;28;20035;-96
2021/05/12 13:30:15;;;;;;;11.63;1.85;;;;;;;21.92;34.41;99665.19;5915327;22;20036;-96
2021/05/12 13:32:41;;;;;;;10.73;1.98;;;;;;;21.70;34.67;99670.63;5253962;22;20051;-96
2021/05/12 13:35:07;;;;;;;9.02;1.80;;;;;;;21.41;36.65;99695.63;5600572;22;20014;-95
2021/05/12 13:40:08;;;;;;;15.43;2.40;;;;;;;20.68;36.91;99674.38;5820549;22;20032;-96
2021/05/12 13:45:12;;;;;;;8.18;2.33;;;;;;;21.84;35.42;99670.69;5334078;22;20048;-96
2021/05/12 13:47:38;;;;;;;10.88;2.00;;;;;;;21.00;36.60;99667.72;5114417;28;20016;-94
2021/05/12 14:03:00;;;;;;;8.52;1.98;;;;;;;22.53;34.31;99684.06;5759164;22;20048;-96
2021/05/12 14:18:22;;;;;;;9.95;1.85;;;;;;;22.40;34.08;99662.59;5784354;22;20024;-96
2021/05/12 14:31:08;;;;;;;7.15;1.50;;;;;;;21.85;35.31;99661.66;5936249;22;20106;-96
2021/05/12 15:07:02;;;;;;;10.13;2.00;;;;;;;22.15;33.21;99681.78;5082112;28;20023;-96
2021/05/12 15:09:27;;;;;;;6.20;1.27;;;;;;;21.93;32.95;99681.03;5086822;28;20024;-96
2021/05/12 15:11:55;;;;;;;6.90;1.60;;;;;;;21.73;31.73;99680.91;5089086;28;20020;-94
2021/05/12 15:14:20;;;;;;;5.10;0.80;;;;;;;21.95;31.88;99680.84;5056484;28;20081;-96
2021/05/12 15:16:45;;;;;;;4.47;1.17;;;;;;;21.78;31.81;99681.16;5061325;28;20066;-96
2021/05/12 15:19:11;;;;;;;5.50;1.30;;;;;;;21.62;32.39;99691.31;5060624;28;20033;-96
2021/05/12 15:21:36;;;;;;;7.03;1.20;;;;;;;21.61;31.85;99676.31;5070998;28;20028;-96
2021/05/12 15:24:02;;;;;;;4.43;0.95;;;;;;;21.39;31.35;99679.78;5064844;28;20025;-96
2021/05/12 15:26:27;;;;;;;4.93;0.88;;;;;;;21.22;31.75;99651.72;5738265;22;20029;-96
2021/05/12 15:28:53;;;;;;;5.40;1.25;;;;;;;21.23;32.35;99666.72;5339034;22;20052;-96
2021/05/12 15:33:55;;;;;;;4.18;1.17;;;;;;;20.85;35.58;99650.94;5995945;22;20016;-96
2021/05/12 15:41:31;;;;;;;7.32;1.60;;;;;;;19.66;41.38;99682.16;4060948;22;20154;-96
2021/05/12 15:43:56;;;;;;;9.60;2.22;;;;;;;19.35;41.84;99685.72;5064601;28;20028;-96
2021/05/12 15:46:23;;;;;;;9.70;2.22;;;;;;;19.24;44.56;99688.84;5091509;28;20036;-96
2021/05/12 15:48:48;;;;;;;7.15;1.50;;;;;;;19.09;45.00;99684.25;5077924;28;20024;-96
2021/05/12 15:51:14;;;;;;;7.38;2.00;;;;;;;18.59;46.53;99694.34;5083938;28;20031;-95
2021/05/12 15:53:39;;;;;;;10.93;1.83;;;;;;;18.88;44.77;99684.06;5084193;28;20028;-96
2021/05/12 15:56:08;;;;;;;11.98;1.85;;;;;;;18.42;46.50;99698.91;5089212;28;20027;-96
2021/05/12 15:58:34;;;;;;;9.63;1.98;;;;;;;18.10;48.10;99701.69;5090006;28;20504;-96
2021/05/12 16:00:59;;;;;;;8.20;1.63;;;;;;;18.66;47.44;99704.28;5093863;28;20033;-96
2021/05/12 16:03:24;;;;;;;7.88;1.92;;;;;;;18.17;49.11;99695.50;5085287;28;20040;-95
2021/05/12 16:05:50;;;;;;;12.10;2.47;;;;;;;18.12;48.59;99692.53;5088169;28;20085;-96
2021/05/12 16:08:15;;;;;;;9.15;2.25;;;;;;;18.73;48.41;99697.28;5100798;28;20054;-96
2021/05/12 16:10:40;;;;;;;8.20;1.92;;;;;;;18.60;48.19;99695.16;5089150;28;20024;-96
2021/05/12 16:13:09;;;;;;;8.80;2.75;;;;;;;18.93;47.03;99700.34;5086202;28;20025;-95
2021/05/12 16:15:35;;;;;;;13.00;2.28;;;;;;;18.46;47.68;99699.38;5083059;28;20108;-96
2021/05/12 16:18:00;;;;;;;11.95;1.95;;;;;;;18.60;49.06;99689.84;5077772;28;20048;-96
2021/05/12 16:20:26;;;;;;;7.88;1.75;;;;;;;18.44;48.73;99690.75;5072665;28;20032;-96
2021/05/12 16:22:51;;;;;;;11.25;1.98;;;;;;;18.54;49.92;99682.56;5074291;28;20075;-95
2021/05/12 16:25:17;;;;;;;10.40;2.13;;;;;;;18.08;50.19;99683.25;5090467;28;20028;-96
2021/05/12 16:27:43;;;;;;;15.15;3.13;;;;;;;18.45;50.50;99687.09;5077730;28;20053;-96
2021/05/12 16:30:09;;;;;;;9.02;1.80;;;;;;;18.45;49.63;99686.28;5073847;28;20509;-94
2021/05/12 16:32:35;;;;;;;7.55;1.73;;;;;;;18.55;50.45;99676.25;5057586;28;20096;-93
2021/05/12 16:35:02;;;;;;;9.23;1.90;;;;;;;18.52;51.35;99677.44;5080892;28;20070;-92
2021/05/12 16:37:30;;;;;;;10.82;2.17;;;;;;;18.61;49.91;99681.69;5069375;28;20485;-96
2021/05/12 16:39:55;;;;;;;8.38;1.77;;;;;;;18.38;49.53;99683.47;5073977;28;20024;-96
2021/05/12 16:42:21;;;;;;;7.70;2.08;;;;;;;18.12;50.26;99683.72;5062471;28;20072;-96
2021/05/12 16:44:46;;;;;;;6.07;1.77;;;;;;;17.74;50.73;99652.41;5256889;22;20022;-96
2021/05/12 16:49:42;;;;;;;10.02;2.67;;;;;;;18.05;50.86;99672.97;5125633;22;20024;-96
2021/05/12 16:54:43;;;;;;;7.28;1.70;;;;;;;17.50;52.36;99681.66;5291832;22;20048;-95
2021/05/12 16:57:09;;;;;;;5.75;1.40;;;;;;;17.74;52.88;99678.97;5097051;28;20032;-96
2021/05/12 16:59:34;;;;;;;6.55;1.60;;;;;;;17.82;52.70;99676.31;5104966;28;20421;-96
2021/05/12 17:25:16;;;;;;;10.30;2.78;;;;;;;16.80;63.61;99704.09;6067993;22;20051;-92
2021/05/12 18:01:21;;;;;;;7.90;2.03;;;;;;;16.40;72.39;99727.63;5527334;22;20055;-95
2021/05/12 18:03:48;;;;;;;9.25;2.42;;;;;;;16.36;72.58;99718.34;5740040;22;20050;-92
2021/05/12 18:06:14;;;;;;;7.32;2.10;;;;;;;16.22;72.70;99711.00;5079616;28;20028;-94
2021/05/12 18:08:42;;;;;;;5.28;1.90;;;;;;;16.17;72.23;99700.88;5136509;22;20043;-96
2021/05/12 18:11:12;;;;;;;6.45;1.42;;;;;;;16.16;73.68;99725.69;5141843;22;20084;-96
2021/05/12 18:21:30;;;;;;;10.55;2.47;;;;;;;15.89;73.36;99712.63;5088836;22;20058;-96
2021/05/12 18:23:57;;;;;;;10.27;2.50;;;;;;;15.70;74.23;99695.94;5057496;28;20033;-96
2021/05/12 18:26:22;;;;;;;6.57;1.80;;;;;;;15.93;73.43;99708.66;5074784;28;20025;-95
2021/05/12 18:28:48;;;;;;;7.97;2.15;;;;;;;15.64;74.10;99709.78;5075976;28;20029;-95
2021/05/12 18:31:13;;;;;;;8.50;2.13;;;;;;;15.68;73.40;99716.41;5059618;28;20036;-96
2021/05/12 18:33:39;;;;;;;4.22;1.60;;;;;;;15.69;73.44;99715.44;5075901;28;20050;-96
2021/05/12 18:36:11;;;;;;;5.93;1.90;;;;;;;15.69;73.43;99717.25;5083782;28;20035;-96
2021/05/12 18:38:52;;;;;;;12.83;2.40;;;;;;;15.33;74.98;99720.75;5070355;28;20056;-96
2021/05/12 18:41:18;;;;;;;8.40;1.75;;;;;;;15.37;75.78;99719.47;5068730;28;20276;-96
2021/05/12 18:43:43;;;;;;;7.38;2.15;;;;;;;15.27;77.30;99716.09;5077168;28;20025;-96
2021/05/12 18:46:12;;;;;;;10.82;2.58;;;;;;;15.31;74.76;99714.78;5068404;28;20115;-96
2021/05/12 18:48:38;;;;;;;8.27;2.25;;;;;;;15.34;76.61;99719.75;5048314;28;20040;-96
2021/05/12 18:51:03;;;;;;;6.95;2.42;;;;;;;15.15;76.58;99725.22;5057850;28;20032;-96
2021/05/12 18:56:05;;;;;;;10.75;1.88;;;;;;;14.92;78.03;99691.28;5599224;22;20051;-96